Terminal Aerodrome Forecast
Issued by NWS

Home | Current Version | Previous Version | Graphics & Text | Print | Product List | Glossary On
Versions: 1 2 3 4 5 6 7 8 9 10 11 12
000
FTUS43 KGRB 152329
TAFAUW
TAF
KAUW 152329Z 1600/1624 33009G15KT P6SM OVC030
      TEMPO 1602/1604 -SHSN
     FM160900 31009KT P6SM SKC
     FM161500 28010G16KT P6SM SKC=

USA.gov is the U.S. government's official web portal to all federal, state and local government web resources and services.